Forside
METAR-TAF:

METAR-TAF

Lufthavne :

Gran Canaria Lufthavn

Gran Canaria, Spanien

Breddekreds: 27-56N, længdekreds: 015-23W, højde: 23 m

Aktuelle vejr

Denne rapport blev lavet for 17 minutter siden, kl. 02:30 UTC
Vind 23 kt fra nord
Temperatur 22°C
Fugtighed 78%
Tryk 1019 hPa
Sigt 10 km eller mere
Brudte skyer i en højde af 2000 ft

METAR: GCLP 160230Z 01023KT 9999 BKN020 22/18 Q1019 NOSIG

Tid: 03:47 (02:47 UTC)

Vejrudsigter

Denne rapport blev lavet for 47 minutter siden, kl. 02:00 UTC
Foreløbig gælder fra 16 på 03 UTC til 17 på 03 UTC
Vind 22 kt fra nord
Sigt 10 km eller mere
Spredte skyer i en højde af 2000 ft

TAF: GCLP 160200Z 1603/1703 36022KT 9999 SCT020 TX26/1614Z TN21/1605Z

Vejrobservationer og prognoser fra mere end 4000 lufthavne (METAR og TAF).

De gule og røde prikker repræsenterer de meteorologiske stationer.

Flyt musen over at se navnet på stationen.

Så klik over at se vejr observationer og prognoser.

At skifte det kort: Klik på de grønne knapper med et sort kors for at zoome ind; på den grønne knap med en bindestreg for at zoome ud; eller på de grønne pile for tilstødende kort.


METAR-TAF: